createdAt,value
2023-04-04T00:00:30.722Z,-2.10
2023-04-04T00:02:57.650Z,-2.00
2023-04-04T00:05:24.678Z,-2.20
2023-04-04T00:07:51.456Z,-2.40
2023-04-04T00:10:18.209Z,-2.10
2023-04-04T00:12:45.084Z,-2.00
2023-04-04T00:15:12.289Z,-2.20
2023-04-04T00:17:39.277Z,-2.40
2023-04-04T00:20:06.704Z,-2.30
2023-04-04T00:22:34.151Z,-2.10
2023-04-04T00:25:01.550Z,-2.40
2023-04-04T00:27:28.364Z,-2.60
2023-04-04T00:29:55.156Z,-2.40
2023-04-04T00:32:22.133Z,-2.20
2023-04-04T00:34:56.237Z,-2.60
2023-04-04T00:37:23.418Z,-2.70
2023-04-04T00:39:50.368Z,-2.60
2023-04-04T00:42:17.988Z,-2.60
2023-04-04T00:44:45.394Z,-2.80
2023-04-04T00:47:12.200Z,-2.90
2023-04-04T00:49:38.996Z,-2.50
2023-04-04T00:52:07.825Z,-2.60
2023-04-04T00:54:35.705Z,-2.60
2023-04-04T00:57:04.463Z,-3.00
2023-04-04T00:59:32.191Z,-3.00
2023-04-04T01:02:00.606Z,-2.90
2023-04-04T01:04:29.401Z,-3.00
2023-04-04T01:06:56.811Z,-2.70
2023-04-04T01:09:23.742Z,-2.90
2023-04-04T01:11:50.882Z,-2.70
2023-04-04T01:14:17.756Z,-2.90
2023-04-04T01:16:45.968Z,-2.90
2023-04-04T01:19:24.558Z,-2.80
2023-04-04T01:21:53.680Z,-2.90
2023-04-04T01:24:22.784Z,-3.00
2023-04-04T01:26:51.440Z,-3.20
2023-04-04T01:29:18.260Z,-3.10
2023-04-04T01:32:12.879Z,-3.00
2023-04-04T01:34:51.721Z,-3.00
2023-04-04T01:37:33.895Z,-3.30
2023-04-04T01:40:12.351Z,-3.10
2023-04-04T01:42:41.180Z,-3.20
2023-04-04T01:45:08.631Z,-3.30
2023-04-04T01:47:42.720Z,-3.20
2023-04-04T01:50:11.094Z,-3.10
2023-04-04T01:52:38.543Z,-3.20
2023-04-04T01:55:05.932Z,-3.60
2023-04-04T01:57:32.767Z,-3.40
2023-04-04T01:59:59.585Z,-3.30
2023-04-04T02:02:27.248Z,-3.10
2023-04-04T02:04:54.097Z,-3.50
2023-04-04T02:07:20.907Z,-3.40
2023-04-04T02:09:47.679Z,-3.30
2023-04-04T02:12:14.546Z,-3.60
2023-04-04T02:14:41.375Z,-3.40
2023-04-04T02:17:08.188Z,-3.50
2023-04-04T02:19:35.702Z,-3.50
2023-04-04T02:22:02.713Z,-3.70
2023-04-04T02:24:29.550Z,-3.60
2023-04-04T02:26:56.345Z,-3.70
2023-04-04T02:29:23.597Z,-3.60
2023-04-04T02:31:50.547Z,-3.60
2023-04-04T02:34:17.529Z,-3.50
2023-04-04T02:36:44.293Z,-3.50
2023-04-04T02:39:11.077Z,-3.60
2023-04-04T02:41:37.864Z,-3.40
2023-04-04T02:44:04.650Z,-3.80
2023-04-04T02:46:31.455Z,-3.60
2023-04-04T02:48:58.262Z,-3.60
2023-04-04T02:51:25.027Z,-3.90
2023-04-04T02:53:51.771Z,-3.80
2023-04-04T02:56:18.551Z,-3.60
2023-04-04T02:58:45.699Z,-3.80
2023-04-04T03:01:12.690Z,-3.80
2023-04-04T03:03:39.678Z,-3.80
2023-04-04T03:06:06.669Z,-4.10
2023-04-04T03:08:35.006Z,-4.10
2023-04-04T03:11:02.772Z,-4.00
2023-04-04T03:13:29.672Z,-3.80
2023-04-04T03:16:06.811Z,-4.10
2023-04-04T03:18:34.742Z,-4.20
2023-04-04T03:21:01.751Z,-4.10
2023-04-04T03:23:28.673Z,-4.10
2023-04-04T03:25:55.472Z,-4.10
2023-04-04T03:28:23.210Z,-3.90
2023-04-04T03:30:50.366Z,-4.20
2023-04-04T03:33:17.366Z,-4.00
2023-04-04T03:35:44.295Z,-4.30
2023-04-04T03:38:11.458Z,-4.30
2023-04-04T03:40:38.389Z,-4.10
2023-04-04T03:43:08.641Z,-4.10
2023-04-04T03:45:38.645Z,-4.30
2023-04-04T03:48:05.789Z,-4.50
2023-04-04T03:50:32.581Z,-4.50
2023-04-04T03:52:59.780Z,-4.40
2023-04-04T03:55:27.259Z,-4.20
2023-04-04T03:57:54.176Z,-4.50
2023-04-04T04:00:21.190Z,-4.20
2023-04-04T04:02:48.154Z,-4.40
2023-04-04T04:05:15.069Z,-4.30
2023-04-04T04:07:44.543Z,-4.40
2023-04-04T04:10:14.093Z,-4.30
2023-04-04T04:12:41.586Z,-4.30
2023-04-04T04:15:08.805Z,-4.20
2023-04-04T04:17:40.180Z,-4.60
2023-04-04T04:20:10.624Z,-4.60
2023-04-04T04:22:38.116Z,-4.40
2023-04-04T04:25:05.684Z,-4.40
2023-04-04T04:27:32.484Z,-4.70
2023-04-04T04:29:59.226Z,-4.60
2023-04-04T04:32:26.709Z,-4.50
2023-04-04T04:34:53.605Z,-4.30
2023-04-04T04:37:20.620Z,-4.60
2023-04-04T04:39:47.386Z,-4.70
2023-04-04T04:42:14.145Z,-4.40
2023-04-04T04:44:41.061Z,-4.40
2023-04-04T04:47:07.869Z,-4.50
2023-04-04T04:49:34.788Z,-4.40
2023-04-04T04:52:02.464Z,-4.60
2023-04-04T04:54:29.231Z,-4.70
2023-04-04T04:56:56.059Z,-4.40
2023-04-04T04:59:22.918Z,-4.50
2023-04-04T05:01:49.651Z,-4.80
2023-04-04T05:04:17.667Z,-4.60
2023-04-04T05:06:44.505Z,-4.30
2023-04-04T05:09:11.325Z,-4.10
2023-04-04T05:11:38.169Z,-4.00
2023-04-04T05:14:06.880Z,-4.20
2023-04-04T05:16:33.771Z,-4.00
2023-04-04T05:19:00.627Z,-3.70
2023-04-04T05:21:28.067Z,-3.50
2023-04-04T05:23:55.114Z,-3.60
2023-04-04T05:26:21.856Z,-3.50
2023-04-04T05:28:48.988Z,-3.40
2023-04-04T05:31:15.775Z,-3.50
2023-04-04T05:33:42.589Z,-3.40
2023-04-04T05:36:09.621Z,-3.20
2023-04-04T05:38:37.261Z,-3.20
2023-04-04T05:41:04.079Z,-3.10
2023-04-04T05:43:31.237Z,-3.00
2023-04-04T05:45:58.229Z,-3.00
2023-04-04T05:48:24.997Z,-3.00
2023-04-04T05:50:51.805Z,-2.90
2023-04-04T05:53:18.938Z,-2.80
2023-04-04T05:55:45.801Z,-2.70
2023-04-04T05:58:13.685Z,-2.50
2023-04-04T06:00:40.880Z,-2.40
2023-04-04T06:03:07.940Z,-2.30
2023-04-04T06:05:34.890Z,-2.20
2023-04-04T06:08:01.811Z,-2.20
2023-04-04T06:10:28.612Z,-2.10
2023-04-04T06:12:55.423Z,-2.00
2023-04-04T06:15:22.179Z,-1.80
2023-04-04T06:17:48.959Z,-1.70
2023-04-04T06:20:15.762Z,-1.00
2023-04-04T06:22:42.516Z,-0.70
2023-04-04T06:25:10.510Z,0.30
2023-04-04T06:27:37.334Z,0.40
2023-04-04T06:30:04.363Z,0.20
2023-04-04T06:32:32.082Z,0.30
2023-04-04T06:34:58.871Z,0.50
2023-04-04T06:37:25.815Z,0.70
2023-04-04T06:39:53.720Z,0.70
2023-04-04T06:42:20.502Z,0.70
2023-04-04T06:44:47.258Z,0.80
2023-04-04T06:47:15.003Z,1.00
2023-04-04T06:49:41.776Z,1.10
2023-04-04T06:52:08.653Z,1.20
2023-04-04T06:54:35.921Z,1.10
2023-04-04T06:57:03.022Z,1.10
2023-04-04T06:59:29.912Z,1.20
2023-04-04T07:01:57.766Z,1.20
2023-04-04T07:04:24.601Z,1.40
2023-04-04T07:06:51.355Z,1.50
2023-04-04T07:09:28.199Z,1.60
2023-04-04T07:11:56.410Z,1.70
2023-04-04T07:14:25.669Z,1.70
2023-04-04T07:17:29.057Z,1.90
2023-04-04T07:19:55.943Z,1.90
2023-04-04T07:22:22.753Z,1.90
2023-04-04T07:24:49.599Z,1.80
2023-04-04T07:27:16.497Z,2.10
2023-04-04T07:29:43.395Z,2.00
2023-04-04T07:32:10.444Z,2.10
2023-04-04T07:34:37.587Z,2.10
2023-04-04T07:37:04.384Z,2.20
2023-04-04T07:39:32.009Z,2.00
2023-04-04T07:41:58.799Z,1.90
2023-04-04T07:44:25.554Z,2.40
2023-04-04T07:47:06.420Z,2.20
2023-04-04T07:49:36.356Z,2.40
2023-04-04T07:52:03.267Z,2.60
2023-04-04T07:54:30.017Z,2.60
2023-04-04T07:56:56.801Z,2.70
2023-04-04T07:59:23.574Z,2.80
2023-04-04T08:01:50.629Z,3.00
2023-04-04T08:04:17.497Z,2.90
2023-04-04T08:06:44.330Z,2.80
2023-04-04T08:09:11.314Z,2.90
2023-04-04T08:11:38.052Z,2.60
2023-04-04T08:14:05.980Z,2.80
2023-04-04T08:16:33.713Z,2.90
2023-04-04T08:19:00.690Z,2.90
2023-04-04T08:21:51.561Z,2.90
2023-04-04T08:24:19.309Z,2.90
2023-04-04T08:26:49.274Z,2.90
2023-04-04T08:29:24.931Z,3.00
2023-04-04T08:31:54.082Z,3.20
2023-04-04T08:34:20.999Z,3.30
2023-04-04T08:36:47.754Z,3.30
2023-04-04T08:39:14.517Z,3.70
2023-04-04T08:41:45.407Z,3.40
2023-04-04T08:44:22.859Z,3.30
2023-04-04T08:46:50.712Z,3.50
2023-04-04T08:49:21.279Z,3.70
2023-04-04T08:51:49.298Z,3.50
2023-04-04T08:54:17.938Z,3.60
2023-04-04T08:56:44.742Z,3.40
2023-04-04T08:59:15.530Z,3.50
2023-04-04T09:01:42.599Z,3.60
2023-04-04T09:04:10.539Z,4.10
2023-04-04T09:06:37.706Z,4.20
2023-04-04T09:09:05.136Z,4.20
2023-04-04T09:11:33.519Z,4.40
2023-04-04T09:14:04.294Z,4.10
2023-04-04T09:16:31.585Z,4.10
2023-04-04T09:18:58.338Z,4.30
2023-04-04T09:21:26.332Z,4.50
2023-04-04T09:24:03.030Z,4.30
2023-04-04T09:26:46.386Z,4.30
2023-04-04T09:29:13.898Z,4.10
2023-04-04T09:31:46.472Z,4.10
2023-04-04T09:34:14.971Z,4.20
2023-04-04T09:36:41.832Z,4.20
2023-04-04T09:39:09.044Z,4.90
2023-04-04T09:41:39.453Z,4.70
2023-04-04T09:44:07.376Z,4.40
2023-04-04T09:46:36.800Z,4.80
2023-04-04T09:49:04.707Z,4.60
2023-04-04T09:51:53.837Z,4.50
2023-04-04T09:54:29.568Z,4.70
2023-04-04T09:56:57.369Z,5.10
2023-04-04T09:59:24.691Z,4.70
2023-04-04T10:01:54.431Z,4.70
2023-04-04T10:04:21.414Z,4.80
2023-04-04T10:06:48.356Z,5.10
2023-04-04T10:09:16.247Z,5.20
2023-04-04T10:11:43.085Z,5.20
2023-04-04T10:14:09.996Z,5.20
2023-04-04T10:16:38.199Z,5.10
2023-04-04T10:19:08.713Z,5.10
2023-04-04T10:21:35.908Z,4.90
2023-04-04T10:24:09.293Z,5.30
2023-04-04T10:26:37.131Z,5.00
2023-04-04T10:29:05.798Z,5.10
2023-04-04T10:31:34.513Z,5.20
2023-04-04T10:34:33.167Z,5.50
2023-04-04T10:37:19.605Z,5.10
2023-04-04T10:39:50.590Z,5.50
2023-04-04T10:42:18.938Z,5.20
2023-04-04T10:44:47.498Z,5.40
2023-04-04T10:47:21.765Z,5.60
2023-04-04T10:49:50.062Z,5.90
2023-04-04T10:52:27.509Z,6.00
2023-04-04T10:54:57.371Z,5.80
2023-04-04T10:57:25.274Z,5.40
2023-04-04T11:00:10.852Z,5.40
2023-04-04T11:02:53.184Z,6.20
2023-04-04T11:05:33.253Z,5.90
2023-04-04T11:08:08.672Z,5.90
2023-04-04T11:10:36.723Z,6.00
2023-04-04T11:13:14.363Z,6.00
2023-04-04T11:15:58.020Z,6.20
2023-04-04T11:18:46.063Z,6.30
2023-04-04T11:21:20.085Z,6.20
2023-04-04T11:23:50.411Z,6.70
2023-04-04T11:26:36.255Z,6.40
2023-04-04T11:29:09.702Z,6.70
2023-04-04T11:31:43.160Z,6.40
2023-04-04T11:34:13.952Z,6.20
2023-04-04T11:36:42.508Z,5.90
2023-04-04T11:39:16.885Z,6.60
2023-04-04T11:41:43.973Z,6.70
2023-04-04T11:44:11.802Z,6.50
2023-04-04T11:46:39.471Z,6.40
2023-04-04T11:49:06.598Z,7.00
2023-04-04T11:51:33.654Z,6.30
2023-04-04T11:54:00.576Z,6.40
2023-04-04T11:56:27.362Z,6.40
2023-04-04T11:59:08.643Z,6.50
2023-04-04T12:01:38.909Z,6.60
2023-04-04T12:04:05.806Z,6.90
2023-04-04T12:06:38.362Z,6.40
2023-04-04T12:09:06.075Z,6.50
2023-04-04T12:11:37.248Z,6.80
2023-04-04T12:14:04.074Z,6.90
2023-04-04T12:16:31.037Z,7.00
2023-04-04T12:19:02.111Z,7.20
2023-04-04T12:21:31.789Z,7.40
2023-04-04T12:23:58.616Z,6.90
2023-04-04T12:26:29.751Z,7.30
2023-04-04T12:29:00.834Z,7.20
2023-04-04T12:31:28.664Z,7.00
2023-04-04T12:33:55.633Z,6.90
2023-04-04T12:36:31.582Z,6.80
2023-04-04T12:39:02.294Z,6.60
2023-04-04T12:41:29.343Z,6.50
2023-04-04T12:44:04.045Z,7.20
2023-04-04T12:46:42.359Z,6.70
2023-04-04T12:49:14.047Z,7.10
2023-04-04T12:51:41.345Z,6.70
2023-04-04T12:54:08.189Z,6.90
2023-04-04T12:56:37.009Z,7.50
2023-04-04T12:59:05.005Z,7.00
2023-04-04T13:01:33.197Z,7.20
2023-04-04T13:04:06.932Z,7.30
2023-04-04T13:06:33.754Z,7.30
2023-04-04T13:09:01.346Z,7.10
2023-04-04T13:12:04.475Z,7.70
2023-04-04T13:14:56.348Z,7.80
2023-04-04T13:17:23.650Z,7.60
2023-04-04T13:19:50.866Z,7.50
2023-04-04T13:22:17.668Z,7.80
2023-04-04T13:24:44.443Z,8.10
2023-04-04T13:27:11.330Z,7.60
2023-04-04T13:29:38.088Z,7.30
2023-04-04T13:32:05.540Z,7.60
2023-04-04T13:34:32.862Z,7.90
2023-04-04T13:36:59.623Z,7.70
2023-04-04T13:39:26.603Z,8.20
2023-04-04T13:41:53.434Z,7.70
2023-04-04T13:44:20.432Z,8.00
2023-04-04T13:46:47.224Z,8.20
2023-04-04T13:49:14.137Z,7.70
2023-04-04T13:51:40.947Z,7.90
2023-04-04T13:54:07.737Z,8.50
2023-04-04T13:56:34.509Z,7.70
2023-04-04T13:59:01.333Z,7.80
2023-04-04T14:01:28.274Z,8.60
2023-04-04T14:03:56.270Z,7.80
2023-04-04T14:06:23.324Z,8.10
2023-04-04T14:08:50.499Z,8.00
2023-04-04T14:11:17.437Z,7.40
2023-04-04T14:13:44.232Z,7.90
2023-04-04T14:16:11.035Z,7.30
2023-04-04T14:18:38.046Z,7.20
2023-04-04T14:21:06.163Z,7.80
2023-04-04T14:23:33.030Z,7.80
2023-04-04T14:25:59.904Z,8.00
2023-04-04T14:28:27.465Z,7.90
2023-04-04T14:30:54.558Z,7.90
2023-04-04T14:33:22.297Z,7.80
2023-04-04T14:35:49.204Z,8.00
2023-04-04T14:38:16.583Z,8.00
2023-04-04T14:40:43.793Z,8.20
2023-04-04T14:43:10.677Z,7.70
2023-04-04T14:45:37.578Z,8.40
2023-04-04T14:48:04.562Z,7.90
2023-04-04T14:50:31.376Z,7.30
2023-04-04T14:52:58.162Z,7.30
2023-04-04T14:55:25.223Z,7.30
2023-04-04T14:58:01.815Z,7.60
2023-04-04T15:00:30.625Z,7.60
2023-04-04T15:02:57.644Z,7.30
2023-04-04T15:05:26.449Z,7.40
2023-04-04T15:07:53.312Z,7.10
2023-04-04T15:10:20.179Z,7.20
2023-04-04T15:12:47.009Z,6.70
2023-04-04T15:15:14.409Z,6.50
2023-04-04T15:17:42.157Z,6.50
2023-04-04T15:20:09.644Z,6.50
2023-04-04T15:22:38.578Z,6.50
2023-04-04T15:25:06.364Z,6.80
2023-04-04T15:27:33.156Z,6.90
2023-04-04T15:29:59.931Z,6.40
2023-04-04T15:32:31.260Z,6.50
2023-04-04T15:34:58.605Z,6.80
2023-04-04T15:37:58.257Z,6.80
2023-04-04T15:40:25.054Z,6.60
2023-04-04T15:42:52.217Z,6.50
2023-04-04T15:45:19.002Z,6.50
2023-04-04T15:47:46.234Z,6.40
2023-04-04T15:50:13.303Z,6.40
2023-04-04T15:52:40.318Z,6.30
2023-04-04T15:55:28.221Z,6.40
2023-04-04T15:57:55.307Z,6.50
2023-04-04T16:00:22.442Z,6.30
2023-04-04T16:02:49.494Z,6.10
2023-04-04T16:05:16.368Z,6.10
2023-04-04T16:07:43.676Z,6.10
2023-04-04T16:10:10.898Z,5.90
2023-04-04T16:12:37.759Z,5.90
2023-04-04T16:15:06.968Z,5.80
2023-04-04T16:17:34.072Z,5.70
2023-04-04T16:20:01.152Z,5.90
2023-04-04T16:22:27.935Z,5.80
2023-04-04T16:24:54.745Z,5.60
2023-04-04T16:27:21.599Z,5.50
2023-04-04T16:29:48.432Z,5.40
2023-04-04T16:32:15.541Z,5.50
2023-04-04T16:34:42.404Z,5.40
2023-04-04T16:37:11.655Z,5.40
2023-04-04T16:39:38.634Z,5.40
2023-04-04T16:42:05.439Z,5.30
2023-04-04T16:44:32.221Z,5.20
2023-04-04T16:46:59.121Z,5.30
2023-04-04T16:49:26.041Z,5.10
2023-04-04T16:51:52.833Z,5.10
2023-04-04T16:54:19.581Z,5.10
2023-04-04T16:56:46.842Z,5.20
2023-04-04T16:59:14.844Z,5.10
2023-04-04T17:01:43.045Z,4.90
2023-04-04T17:04:10.691Z,4.80
2023-04-04T17:06:37.659Z,4.70
2023-04-04T17:09:04.433Z,4.70
2023-04-04T17:11:31.416Z,4.60
2023-04-04T17:13:58.284Z,4.70
2023-04-04T17:16:26.674Z,4.70
2023-04-04T17:18:53.549Z,4.60
2023-04-04T17:21:20.454Z,4.60
2023-04-04T17:23:47.246Z,4.50
2023-04-04T17:26:14.054Z,4.30
2023-04-04T17:28:42.387Z,4.30
2023-04-04T17:31:09.207Z,4.30
2023-04-04T17:33:36.030Z,4.30
2023-04-04T17:36:03.200Z,4.10
2023-04-04T17:38:30.909Z,4.10
2023-04-04T17:41:00.712Z,4.00
2023-04-04T17:43:27.643Z,4.00
2023-04-04T17:45:54.472Z,3.90
2023-04-04T17:48:22.159Z,3.90
2023-04-04T17:50:50.357Z,3.90
2023-04-04T17:53:17.117Z,3.80
2023-04-04T17:55:44.061Z,3.70
2023-04-04T17:58:11.033Z,3.70
2023-04-04T18:00:38.197Z,3.70
2023-04-04T18:03:05.208Z,3.60
2023-04-04T18:05:33.412Z,3.60
2023-04-04T18:08:04.766Z,3.50
2023-04-04T18:10:32.057Z,3.50
2023-04-04T18:12:59.039Z,3.40
2023-04-04T18:15:26.207Z,3.40
2023-04-04T18:17:53.688Z,3.40
2023-04-04T18:20:33.891Z,3.30
2023-04-04T18:23:01.841Z,3.40
2023-04-04T18:25:29.388Z,3.30
2023-04-04T18:27:56.180Z,3.20
2023-04-04T18:30:23.173Z,3.20
2023-04-04T18:32:51.002Z,3.30
2023-04-04T18:35:17.903Z,3.00
2023-04-04T18:37:44.781Z,2.90
2023-04-04T18:40:12.222Z,3.00
2023-04-04T18:42:39.082Z,3.00
2023-04-04T18:45:08.137Z,2.90
2023-04-04T18:47:35.449Z,2.90
2023-04-04T18:50:03.255Z,2.90
2023-04-04T18:52:30.076Z,3.00
2023-04-04T18:54:57.370Z,3.00
2023-04-04T18:57:24.217Z,2.80
2023-04-04T18:59:50.971Z,2.80
2023-04-04T19:02:18.244Z,2.70
2023-04-04T19:04:47.240Z,2.60
2023-04-04T19:07:21.966Z,2.50
2023-04-04T19:09:50.430Z,2.40
2023-04-04T19:12:17.197Z,2.50
2023-04-04T19:14:48.078Z,2.60
2023-04-04T19:17:15.717Z,2.50
2023-04-04T19:19:43.342Z,2.70
2023-04-04T19:22:10.600Z,2.70
2023-04-04T19:24:40.200Z,2.70
2023-04-04T19:27:07.132Z,2.50
2023-04-04T19:29:36.334Z,2.20
2023-04-04T19:32:14.213Z,2.20
2023-04-04T19:34:42.779Z,1.80
2023-04-04T19:37:14.105Z,2.20
2023-04-04T19:39:43.752Z,1.90
2023-04-04T19:42:11.938Z,1.90
2023-04-04T19:44:40.812Z,1.70
2023-04-04T19:47:10.492Z,1.30
2023-04-04T19:49:39.636Z,1.40
2023-04-04T19:52:07.192Z,1.00
2023-04-04T19:54:41.987Z,1.10
2023-04-04T19:57:17.396Z,1.20
2023-04-04T19:59:53.208Z,1.20
2023-04-04T20:02:48.853Z,0.60
2023-04-04T20:05:33.730Z,0.60
2023-04-04T20:08:01.365Z,0.50
2023-04-04T20:10:40.621Z,0.40
2023-04-04T20:13:08.298Z,0.30
2023-04-04T20:15:50.203Z,0.00
2023-04-04T20:18:23.496Z,-0.10
2023-04-04T20:21:00.973Z,-0.10
2023-04-04T20:23:31.401Z,-0.60
2023-04-04T20:26:06.319Z,-0.70
2023-04-04T20:28:33.777Z,-0.30
2023-04-04T20:31:10.201Z,-0.60
2023-04-04T20:33:40.103Z,-0.20
2023-04-04T20:36:20.410Z,-0.40
2023-04-04T20:38:48.002Z,-0.70
2023-04-04T20:41:24.414Z,-0.80
2023-04-04T20:43:53.880Z,-0.50
2023-04-04T20:46:23.056Z,-0.40
2023-04-04T20:48:51.394Z,-0.80
2023-04-04T20:51:27.526Z,-1.00
2023-04-04T20:53:56.470Z,-0.80
2023-04-04T20:56:51.718Z,-0.90
2023-04-04T20:59:36.548Z,-1.10
2023-04-04T21:02:16.709Z,-1.20
2023-04-04T21:04:45.685Z,-0.80
2023-04-04T21:07:35.824Z,-0.60
2023-04-04T21:10:03.095Z,-0.80
2023-04-04T21:12:29.923Z,-1.10
2023-04-04T21:14:56.738Z,-0.80
2023-04-04T21:17:23.600Z,-0.90
2023-04-04T21:19:52.142Z,-1.10
2023-04-04T21:22:19.314Z,-1.10
2023-04-04T21:24:46.108Z,-1.20
2023-04-04T21:27:34.482Z,-1.40
2023-04-04T21:30:01.612Z,-1.20
2023-04-04T21:32:29.497Z,-1.20
2023-04-04T21:34:56.295Z,-1.30
2023-04-04T21:37:23.237Z,-1.50
2023-04-04T21:39:56.587Z,-1.50
2023-04-04T21:42:23.339Z,-1.60
2023-04-04T21:44:50.106Z,-1.80
2023-04-04T21:47:16.888Z,-1.80
2023-04-04T21:49:43.667Z,-1.60
2023-04-04T21:52:11.645Z,-1.60
2023-04-04T21:54:38.507Z,-1.70
2023-04-04T21:57:05.598Z,-1.50
2023-04-04T21:59:32.475Z,-1.80
2023-04-04T22:01:59.334Z,-1.90
2023-04-04T22:04:26.223Z,-1.80
2023-04-04T22:06:53.021Z,-1.80
2023-04-04T22:09:22.607Z,-1.70
2023-04-04T22:11:49.440Z,-2.10
2023-04-04T22:14:17.645Z,-1.90
2023-04-04T22:16:44.973Z,-1.80
2023-04-04T22:19:12.052Z,-1.80
2023-04-04T22:21:39.140Z,-1.70
2023-04-04T22:24:06.743Z,-1.50
2023-04-04T22:26:33.868Z,-1.40
2023-04-04T22:29:05.445Z,-1.50
2023-04-04T22:31:34.746Z,-1.50
2023-04-04T22:34:03.150Z,-1.60
2023-04-04T22:36:30.663Z,-1.40
2023-04-04T22:38:57.996Z,-1.70
2023-04-04T22:41:27.816Z,-1.60
2023-04-04T22:43:55.391Z,-1.60
2023-04-04T22:46:22.338Z,-1.70
2023-04-04T22:48:49.306Z,-1.50
2023-04-04T22:51:16.474Z,-1.40
2023-04-04T22:53:44.482Z,-1.40
2023-04-04T22:56:11.711Z,-1.30
2023-04-04T22:58:38.851Z,-1.40
2023-04-04T23:01:06.372Z,-1.20
2023-04-04T23:03:33.607Z,-1.20
2023-04-04T23:06:00.565Z,-1.60
2023-04-04T23:08:27.418Z,-1.60
2023-04-04T23:10:54.391Z,-1.80
2023-04-04T23:13:22.419Z,-2.10
2023-04-04T23:15:49.624Z,-2.40
2023-04-04T23:18:16.536Z,-2.20
2023-04-04T23:20:43.738Z,-2.00
2023-04-04T23:23:10.708Z,-2.40
2023-04-04T23:25:37.474Z,-2.30
2023-04-04T23:28:04.306Z,-2.10
2023-04-04T23:30:31.427Z,-2.10
2023-04-04T23:32:58.219Z,-2.10
2023-04-04T23:35:25.045Z,-1.80
2023-04-04T23:37:51.821Z,-1.70
2023-04-04T23:40:18.663Z,-1.60
2023-04-04T23:42:45.628Z,-1.40
2023-04-04T23:45:12.588Z,-1.40
2023-04-04T23:47:39.691Z,-1.50
2023-04-04T23:50:07.584Z,-1.50
2023-04-04T23:52:35.180Z,-1.40
2023-04-04T23:55:01.967Z,-1.50
2023-04-04T23:57:28.797Z,-1.40
2023-04-04T23:59:55.940Z,-1.50
